sensor_id;sensor_type;location;lat;lon;timestamp;temperature;humidity
20319;DHT22;10317;47.254;11.314;2023-03-01T00:02:23;0.10;99.90
20319;DHT22;10317;47.254;11.314;2023-03-01T00:04:50;0.00;99.90
20319;DHT22;10317;47.254;11.314;2023-03-01T00:07:17;0.00;99.90
20319;DHT22;10317;47.254;11.314;2023-03-01T00:09:42;0.00;99.90
20319;DHT22;10317;47.254;11.314;2023-03-01T00:12:11;0.10;99.90
20319;DHT22;10317;47.254;11.314;2023-03-01T00:14:37;0.00;99.90
20319;DHT22;10317;47.254;11.314;2023-03-01T00:17:02;0.10;99.90
20319;DHT22;10317;47.254;11.314;2023-03-01T00:19:28;0.10;99.90
20319;DHT22;10317;47.254;11.314;2023-03-01T00:21:54;0.10;99.90
20319;DHT22;10317;47.254;11.314;2023-03-01T00:24:19;0.10;99.90
20319;DHT22;10317;47.254;11.314;2023-03-01T00:26:45;0.10;99.90
20319;DHT22;10317;47.254;11.314;2023-03-01T00:29:11;0.10;99.90
20319;DHT22;10317;47.254;11.314;2023-03-01T00:31:37;0.10;99.90
20319;DHT22;10317;47.254;11.314;2023-03-01T00:34:04;0.10;99.90
20319;DHT22;10317;47.254;11.314;2023-03-01T00:36:33;0.10;99.90
20319;DHT22;10317;47.254;11.314;2023-03-01T00:38:59;0.10;99.90
20319;DHT22;10317;47.254;11.314;2023-03-01T00:41:25;0.20;99.90
20319;DHT22;10317;47.254;11.314;2023-03-01T00:43:53;0.10;99.90
20319;DHT22;10317;47.254;11.314;2023-03-01T00:46:21;0.10;99.90
20319;DHT22;10317;47.254;11.314;2023-03-01T00:48:47;0.10;99.90
20319;DHT22;10317;47.254;11.314;2023-03-01T00:51:18;0.10;99.90
20319;DHT22;10317;47.254;11.314;2023-03-01T00:53:45;0.10;99.90
20319;DHT22;10317;47.254;11.314;2023-03-01T00:56:12;0.10;99.90
20319;DHT22;10317;47.254;11.314;2023-03-01T00:58:39;0.10;99.90
20319;DHT22;10317;47.254;11.314;2023-03-01T01:01:13;0.10;99.90
20319;DHT22;10317;47.254;11.314;2023-03-01T01:06:20;0.20;99.90
20319;DHT22;10317;47.254;11.314;2023-03-01T01:08:47;0.20;99.90
20319;DHT22;10317;47.254;11.314;2023-03-01T01:11:13;0.10;99.90
20319;DHT22;10317;47.254;11.314;2023-03-01T01:13:40;0.20;99.90
20319;DHT22;10317;47.254;11.314;2023-03-01T01:16:06;0.10;99.90
20319;DHT22;10317;47.254;11.314;2023-03-01T01:18:32;0.20;99.90
20319;DHT22;10317;47.254;11.314;2023-03-01T01:20:57;0.20;99.90
20319;DHT22;10317;47.254;11.314;2023-03-01T01:23:23;0.20;99.90
20319;DHT22;10317;47.254;11.314;2023-03-01T01:25:49;0.20;99.90
20319;DHT22;10317;47.254;11.314;2023-03-01T01:28:14;0.20;99.90
20319;DHT22;10317;47.254;11.314;2023-03-01T01:30:40;0.20;99.90
20319;DHT22;10317;47.254;11.314;2023-03-01T01:33:06;0.20;99.90
20319;DHT22;10317;47.254;11.314;2023-03-01T01:35:31;0.20;99.90
20319;DHT22;10317;47.254;11.314;2023-03-01T01:37:57;0.20;99.90
20319;DHT22;10317;47.254;11.314;2023-03-01T01:40:23;0.20;99.90
20319;DHT22;10317;47.254;11.314;2023-03-01T01:42:48;0.20;99.90
20319;DHT22;10317;47.254;11.314;2023-03-01T01:45:32;0.20;99.90
20319;DHT22;10317;47.254;11.314;2023-03-01T01:48:06;0.20;99.90
20319;DHT22;10317;47.254;11.314;2023-03-01T01:50:39;0.20;99.90
20319;DHT22;10317;47.254;11.314;2023-03-01T01:53:17;0.20;99.90
20319;DHT22;10317;47.254;11.314;2023-03-01T01:55:54;0.20;99.90
20319;DHT22;10317;47.254;11.314;2023-03-01T01:58:22;0.20;99.90
20319;DHT22;10317;47.254;11.314;2023-03-01T02:00:49;0.20;99.90
20319;DHT22;10317;47.254;11.314;2023-03-01T02:03:20;0.10;99.90
20319;DHT22;10317;47.254;11.314;2023-03-01T02:05:58;0.10;99.90
20319;DHT22;10317;47.254;11.314;2023-03-01T02:08:28;0.20;99.90
20319;DHT22;10317;47.254;11.314;2023-03-01T02:10:56;0.10;99.90
20319;DHT22;10317;47.254;11.314;2023-03-01T02:13:23;0.10;99.90
20319;DHT22;10317;47.254;11.314;2023-03-01T02:15:48;0.10;99.90
20319;DHT22;10317;47.254;11.314;2023-03-01T02:18:17;0.10;99.90
20319;DHT22;10317;47.254;11.314;2023-03-01T02:23:15;0.20;99.90
20319;DHT22;10317;47.254;11.314;2023-03-01T02:28:31;0.20;99.90
20319;DHT22;10317;47.254;11.314;2023-03-01T02:30:57;0.20;99.90
20319;DHT22;10317;47.254;11.314;2023-03-01T02:33:43;0.20;99.90
20319;DHT22;10317;47.254;11.314;2023-03-01T02:36:12;0.20;99.90
20319;DHT22;10317;47.254;11.314;2023-03-01T02:38:41;0.20;99.90
20319;DHT22;10317;47.254;11.314;2023-03-01T02:41:08;0.20;99.90
20319;DHT22;10317;47.254;11.314;2023-03-01T02:43:36;0.20;99.90
20319;DHT22;10317;47.254;11.314;2023-03-01T02:46:08;0.20;99.90
20319;DHT22;10317;47.254;11.314;2023-03-01T02:51:14;0.20;99.90
20319;DHT22;10317;47.254;11.314;2023-03-01T02:56:10;0.20;99.90
20319;DHT22;10317;47.254;11.314;2023-03-01T02:58:40;0.20;99.90
20319;DHT22;10317;47.254;11.314;2023-03-01T03:01:11;0.20;99.90
20319;DHT22;10317;47.254;11.314;2023-03-01T03:03:39;0.20;99.90
20319;DHT22;10317;47.254;11.314;2023-03-01T03:06:04;0.20;99.90
20319;DHT22;10317;47.254;11.314;2023-03-01T03:08:30;0.20;99.90
20319;DHT22;10317;47.254;11.314;2023-03-01T03:10:55;0.20;99.90
20319;DHT22;10317;47.254;11.314;2023-03-01T03:13:21;0.20;99.90
20319;DHT22;10317;47.254;11.314;2023-03-01T03:15:48;0.20;99.90
20319;DHT22;10317;47.254;11.314;2023-03-01T03:18:15;0.20;99.90
20319;DHT22;10317;47.254;11.314;2023-03-01T03:20:42;0.20;99.90
20319;DHT22;10317;47.254;11.314;2023-03-01T03:23:08;0.20;99.90
20319;DHT22;10317;47.254;11.314;2023-03-01T03:25:34;0.20;99.90
20319;DHT22;10317;47.254;11.314;2023-03-01T03:28:04;0.20;99.90
20319;DHT22;10317;47.254;11.314;2023-03-01T03:30:36;0.20;99.90
20319;DHT22;10317;47.254;11.314;2023-03-01T03:33:05;0.20;99.90
20319;DHT22;10317;47.254;11.314;2023-03-01T03:35:33;0.20;99.90
20319;DHT22;10317;47.254;11.314;2023-03-01T03:38:03;0.10;99.90
20319;DHT22;10317;47.254;11.314;2023-03-01T03:40:47;0.20;99.90
20319;DHT22;10317;47.254;11.314;2023-03-01T03:43:22;0.20;99.90
20319;DHT22;10317;47.254;11.314;2023-03-01T03:45:49;0.20;99.90
20319;DHT22;10317;47.254;11.314;2023-03-01T03:48:16;0.20;99.90
20319;DHT22;10317;47.254;11.314;2023-03-01T03:50:48;0.10;99.90
20319;DHT22;10317;47.254;11.314;2023-03-01T03:53:14;0.10;99.90
20319;DHT22;10317;47.254;11.314;2023-03-01T03:55:40;0.10;99.90
20319;DHT22;10317;47.254;11.314;2023-03-01T03:58:10;0.10;99.90
20319;DHT22;10317;47.254;11.314;2023-03-01T04:00:41;0.10;99.90
20319;DHT22;10317;47.254;11.314;2023-03-01T04:03:08;0.10;99.90
20319;DHT22;10317;47.254;11.314;2023-03-01T04:05:34;0.20;99.90
20319;DHT22;10317;47.254;11.314;2023-03-01T04:08:00;0.10;99.90
20319;DHT22;10317;47.254;11.314;2023-03-01T04:10:30;0.10;99.90
20319;DHT22;10317;47.254;11.314;2023-03-01T04:12:56;0.10;99.90
20319;DHT22;10317;47.254;11.314;2023-03-01T04:15:23;0.20;99.90
20319;DHT22;10317;47.254;11.314;2023-03-01T04:17:51;0.20;99.90
20319;DHT22;10317;47.254;11.314;2023-03-01T04:20:26;0.10;99.90
20319;DHT22;10317;47.254;11.314;2023-03-01T04:23:07;0.20;99.90
20319;DHT22;10317;47.254;11.314;2023-03-01T04:25:53;0.10;99.90
20319;DHT22;10317;47.254;11.314;2023-03-01T04:28:33;0.10;99.90
20319;DHT22;10317;47.254;11.314;2023-03-01T04:31:04;0.10;99.90
20319;DHT22;10317;47.254;11.314;2023-03-01T04:33:44;0.10;99.90
20319;DHT22;10317;47.254;11.314;2023-03-01T04:36:10;0.10;99.90
20319;DHT22;10317;47.254;11.314;2023-03-01T04:38:37;0.20;99.90
20319;DHT22;10317;47.254;11.314;2023-03-01T04:41:08;0.10;99.90
20319;DHT22;10317;47.254;11.314;2023-03-01T04:43:35;0.20;99.90
20319;DHT22;10317;47.254;11.314;2023-03-01T04:46:05;0.10;99.90
20319;DHT22;10317;47.254;11.314;2023-03-01T04:48:32;0.20;99.90
20319;DHT22;10317;47.254;11.314;2023-03-01T04:50:59;0.10;99.90
20319;DHT22;10317;47.254;11.314;2023-03-01T04:53:25;0.10;99.90
20319;DHT22;10317;47.254;11.314;2023-03-01T04:55:51;0.10;99.90
20319;DHT22;10317;47.254;11.314;2023-03-01T04:58:17;0.10;99.90
20319;DHT22;10317;47.254;11.314;2023-03-01T05:00:43;0.10;99.90
20319;DHT22;10317;47.254;11.314;2023-03-01T05:03:08;0.10;99.90
20319;DHT22;10317;47.254;11.314;2023-03-01T05:05:36;0.10;99.90
20319;DHT22;10317;47.254;11.314;2023-03-01T05:08:07;0.10;99.90
20319;DHT22;10317;47.254;11.314;2023-03-01T05:10:34;0.10;99.90
20319;DHT22;10317;47.254;11.314;2023-03-01T05:13:01;0.10;99.90
20319;DHT22;10317;47.254;11.314;2023-03-01T05:15:29;0.10;99.90
20319;DHT22;10317;47.254;11.314;2023-03-01T05:17:57;0.10;99.90
20319;DHT22;10317;47.254;11.314;2023-03-01T05:20:25;0.10;99.90
20319;DHT22;10317;47.254;11.314;2023-03-01T05:22:53;0.20;99.90
20319;DHT22;10317;47.254;11.314;2023-03-01T05:25:20;0.10;99.90
20319;DHT22;10317;47.254;11.314;2023-03-01T05:27:47;0.10;99.90
20319;DHT22;10317;47.254;11.314;2023-03-01T05:30:13;0.10;99.90
20319;DHT22;10317;47.254;11.314;2023-03-01T05:32:48;0.10;99.90
20319;DHT22;10317;47.254;11.314;2023-03-01T05:35:15;0.10;99.90
20319;DHT22;10317;47.254;11.314;2023-03-01T05:37:46;0.10;99.90
20319;DHT22;10317;47.254;11.314;2023-03-01T05:40:21;0.10;99.90
20319;DHT22;10317;47.254;11.314;2023-03-01T05:42:49;0.10;99.90
20319;DHT22;10317;47.254;11.314;2023-03-01T05:45:16;0.00;99.90
20319;DHT22;10317;47.254;11.314;2023-03-01T05:47:43;0.10;99.90
20319;DHT22;10317;47.254;11.314;2023-03-01T05:50:21;0.10;99.90
20319;DHT22;10317;47.254;11.314;2023-03-01T05:53:01;0.10;99.90
20319;DHT22;10317;47.254;11.314;2023-03-01T05:55:28;0.10;99.90
20319;DHT22;10317;47.254;11.314;2023-03-01T05:57:54;0.10;99.90
20319;DHT22;10317;47.254;11.314;2023-03-01T06:00:22;0.10;99.90
20319;DHT22;10317;47.254;11.314;2023-03-01T06:02:48;0.10;99.90
20319;DHT22;10317;47.254;11.314;2023-03-01T06:05:14;0.10;99.90
20319;DHT22;10317;47.254;11.314;2023-03-01T06:07:41;0.10;99.90
20319;DHT22;10317;47.254;11.314;2023-03-01T06:10:08;0.10;99.90
20319;DHT22;10317;47.254;11.314;2023-03-01T06:12:36;0.10;99.90
20319;DHT22;10317;47.254;11.314;2023-03-01T06:15:03;0.10;99.90
20319;DHT22;10317;47.254;11.314;2023-03-01T06:17:31;0.10;99.90
20319;DHT22;10317;47.254;11.314;2023-03-01T06:19:57;0.20;99.90
20319;DHT22;10317;47.254;11.314;2023-03-01T06:22:23;0.10;99.90
20319;DHT22;10317;47.254;11.314;2023-03-01T06:24:49;0.20;99.90
20319;DHT22;10317;47.254;11.314;2023-03-01T06:27:15;0.20;99.90
20319;DHT22;10317;47.254;11.314;2023-03-01T06:29:41;0.20;99.90
20319;DHT22;10317;47.254;11.314;2023-03-01T06:32:07;0.20;99.90
20319;DHT22;10317;47.254;11.314;2023-03-01T06:34:33;0.20;99.90
20319;DHT22;10317;47.254;11.314;2023-03-01T06:36:59;0.30;99.90
20319;DHT22;10317;47.254;11.314;2023-03-01T06:39:27;0.30;99.90
20319;DHT22;10317;47.254;11.314;2023-03-01T06:41:52;0.40;99.90
20319;DHT22;10317;47.254;11.314;2023-03-01T06:44:18;0.40;99.90
20319;DHT22;10317;47.254;11.314;2023-03-01T06:46:44;0.40;99.90
20319;DHT22;10317;47.254;11.314;2023-03-01T06:49:09;0.40;99.90
20319;DHT22;10317;47.254;11.314;2023-03-01T06:51:36;0.40;99.90
20319;DHT22;10317;47.254;11.314;2023-03-01T06:54:03;0.50;99.90
20319;DHT22;10317;47.254;11.314;2023-03-01T06:56:32;0.50;99.90
20319;DHT22;10317;47.254;11.314;2023-03-01T06:59:03;0.50;99.90
20319;DHT22;10317;47.254;11.314;2023-03-01T07:01:30;0.60;99.90
20319;DHT22;10317;47.254;11.314;2023-03-01T07:03:56;0.60;99.90
20319;DHT22;10317;47.254;11.314;2023-03-01T07:06:22;0.60;99.90
20319;DHT22;10317;47.254;11.314;2023-03-01T07:08:49;0.70;99.90
20319;DHT22;10317;47.254;11.314;2023-03-01T07:11:15;0.70;99.90
20319;DHT22;10317;47.254;11.314;2023-03-01T07:13:41;0.80;99.90
20319;DHT22;10317;47.254;11.314;2023-03-01T07:16:07;0.80;99.90
20319;DHT22;10317;47.254;11.314;2023-03-01T07:18:33;0.90;99.90
20319;DHT22;10317;47.254;11.314;2023-03-01T07:21:07;0.90;99.90
20319;DHT22;10317;47.254;11.314;2023-03-01T07:23:33;1.00;99.90
20319;DHT22;10317;47.254;11.314;2023-03-01T07:25:59;1.00;99.90
20319;DHT22;10317;47.254;11.314;2023-03-01T07:28:26;0.90;99.90
20319;DHT22;10317;47.254;11.314;2023-03-01T07:30:52;1.00;99.90
20319;DHT22;10317;47.254;11.314;2023-03-01T07:33:19;1.10;99.90
20319;DHT22;10317;47.254;11.314;2023-03-01T07:35:44;1.20;99.90
20319;DHT22;10317;47.254;11.314;2023-03-01T07:38:10;1.30;99.90
20319;DHT22;10317;47.254;11.314;2023-03-01T07:40:36;1.30;99.90
20319;DHT22;10317;47.254;11.314;2023-03-01T07:43:02;1.40;99.90
20319;DHT22;10317;47.254;11.314;2023-03-01T07:45:28;1.50;99.90
20319;DHT22;10317;47.254;11.314;2023-03-01T07:47:55;1.60;99.90
20319;DHT22;10317;47.254;11.314;2023-03-01T07:50:21;1.50;99.90
20319;DHT22;10317;47.254;11.314;2023-03-01T07:52:48;1.60;99.90
20319;DHT22;10317;47.254;11.314;2023-03-01T07:55:15;1.80;99.90
20319;DHT22;10317;47.254;11.314;2023-03-01T07:57:41;1.90;99.90
20319;DHT22;10317;47.254;11.314;2023-03-01T08:00:09;2.00;99.90
20319;DHT22;10317;47.254;11.314;2023-03-01T08:02:35;2.10;99.90
20319;DHT22;10317;47.254;11.314;2023-03-01T08:05:01;2.30;99.90
20319;DHT22;10317;47.254;11.314;2023-03-01T08:07:27;2.40;99.90
20319;DHT22;10317;47.254;11.314;2023-03-01T08:09:52;2.50;99.90
20319;DHT22;10317;47.254;11.314;2023-03-01T08:12:18;2.50;99.90
20319;DHT22;10317;47.254;11.314;2023-03-01T08:14:44;2.60;99.90
20319;DHT22;10317;47.254;11.314;2023-03-01T08:17:09;2.60;99.90
20319;DHT22;10317;47.254;11.314;2023-03-01T08:19:35;2.70;99.90
20319;DHT22;10317;47.254;11.314;2023-03-01T08:22:01;2.70;99.90
20319;DHT22;10317;47.254;11.314;2023-03-01T08:24:28;2.90;99.90
20319;DHT22;10317;47.254;11.314;2023-03-01T08:26:54;2.90;99.90
20319;DHT22;10317;47.254;11.314;2023-03-01T08:29:20;2.90;99.90
20319;DHT22;10317;47.254;11.314;2023-03-01T08:31:46;2.90;99.70
20319;DHT22;10317;47.254;11.314;2023-03-01T08:34:14;2.90;99.90
20319;DHT22;10317;47.254;11.314;2023-03-01T08:36:41;3.00;99.90
20319;DHT22;10317;47.254;11.314;2023-03-01T08:39:09;3.10;99.80
20319;DHT22;10317;47.254;11.314;2023-03-01T08:41:36;3.10;99.80
20319;DHT22;10317;47.254;11.314;2023-03-01T08:44:02;3.20;99.50
20319;DHT22;10317;47.254;11.314;2023-03-01T08:46:33;3.10;98.90
20319;DHT22;10317;47.254;11.314;2023-03-01T08:48:59;3.20;99.00
20319;DHT22;10317;47.254;11.314;2023-03-01T08:51:25;3.20;98.70
20319;DHT22;10317;47.254;11.314;2023-03-01T08:53:52;3.10;98.50
20319;DHT22;10317;47.254;11.314;2023-03-01T08:56:18;2.90;96.90
20319;DHT22;10317;47.254;11.314;2023-03-01T08:58:45;3.00;98.30
20319;DHT22;10317;47.254;11.314;2023-03-01T09:01:13;3.10;98.30
20319;DHT22;10317;47.254;11.314;2023-03-01T09:03:40;3.10;98.20
20319;DHT22;10317;47.254;11.314;2023-03-01T09:06:07;3.10;98.00
20319;DHT22;10317;47.254;11.314;2023-03-01T09:08:49;3.10;97.70
20319;DHT22;10317;47.254;11.314;2023-03-01T09:11:18;3.10;98.00
20319;DHT22;10317;47.254;11.314;2023-03-01T09:13:45;3.20;97.90
20319;DHT22;10317;47.254;11.314;2023-03-01T09:16:13;3.20;97.60
20319;DHT22;10317;47.254;11.314;2023-03-01T09:18:39;3.30;97.50
20319;DHT22;10317;47.254;11.314;2023-03-01T09:21:13;3.30;96.80
20319;DHT22;10317;47.254;11.314;2023-03-01T09:23:42;3.50;97.20
20319;DHT22;10317;47.254;11.314;2023-03-01T09:26:10;4.00;97.50
20319;DHT22;10317;47.254;11.314;2023-03-01T09:28:37;4.50;97.40
20319;DHT22;10317;47.254;11.314;2023-03-01T09:31:05;4.70;94.80
20319;DHT22;10317;47.254;11.314;2023-03-01T09:33:32;5.20;94.50
20319;DHT22;10317;47.254;11.314;2023-03-01T09:35:58;5.60;93.60
20319;DHT22;10317;47.254;11.314;2023-03-01T09:38:24;5.90;91.80
20319;DHT22;10317;47.254;11.314;2023-03-01T09:40:50;5.90;91.10
20319;DHT22;10317;47.254;11.314;2023-03-01T09:43:23;5.90;90.70
20319;DHT22;10317;47.254;11.314;2023-03-01T09:45:53;5.80;90.80
20319;DHT22;10317;47.254;11.314;2023-03-01T09:48:23;5.70;91.00
20319;DHT22;10317;47.254;11.314;2023-03-01T09:50:50;6.00;91.00
20319;DHT22;10317;47.254;11.314;2023-03-01T09:53:20;6.10;90.20
20319;DHT22;10317;47.254;11.314;2023-03-01T09:59:00;5.90;88.00
20319;DHT22;10317;47.254;11.314;2023-03-01T10:06:35;5.90;88.30
20319;DHT22;10317;47.254;11.314;2023-03-01T10:09:13;6.20;88.80
20319;DHT22;10317;47.254;11.314;2023-03-01T10:11:45;6.20;87.10
20319;DHT22;10317;47.254;11.314;2023-03-01T10:19:50;6.30;86.90
20319;DHT22;10317;47.254;11.314;2023-03-01T10:22:19;6.40;86.10
20319;DHT22;10317;47.254;11.314;2023-03-01T10:24:49;6.40;83.00
20319;DHT22;10317;47.254;11.314;2023-03-01T10:27:24;6.30;82.80
20319;DHT22;10317;47.254;11.314;2023-03-01T10:29:59;6.10;83.60
20319;DHT22;10317;47.254;11.314;2023-03-01T10:32:27;6.10;84.10
20319;DHT22;10317;47.254;11.314;2023-03-01T10:34:53;6.10;83.80
20319;DHT22;10317;47.254;11.314;2023-03-01T10:37:20;6.50;83.30
20319;DHT22;10317;47.254;11.314;2023-03-01T10:40:09;6.30;85.00
20319;DHT22;10317;47.254;11.314;2023-03-01T10:42:38;6.50;83.90
20319;DHT22;10317;47.254;11.314;2023-03-01T10:45:24;6.60;81.50
20319;DHT22;10317;47.254;11.314;2023-03-01T10:50:44;6.30;83.20
20319;DHT22;10317;47.254;11.314;2023-03-01T10:53:32;6.90;83.30
20319;DHT22;10317;47.254;11.314;2023-03-01T10:58:30;6.70;80.20
20319;DHT22;10317;47.254;11.314;2023-03-01T11:00:59;6.80;80.90
20319;DHT22;10317;47.254;11.314;2023-03-01T11:03:28;6.70;81.90
20319;DHT22;10317;47.254;11.314;2023-03-01T11:05:56;6.60;82.30
20319;DHT22;10317;47.254;11.314;2023-03-01T11:08:41;6.70;81.40
20319;DHT22;10317;47.254;11.314;2023-03-01T11:11:30;6.60;81.30
20319;DHT22;10317;47.254;11.314;2023-03-01T11:14:15;6.70;82.10
20319;DHT22;10317;47.254;11.314;2023-03-01T11:16:46;6.60;79.60
20319;DHT22;10317;47.254;11.314;2023-03-01T11:19:18;6.60;80.60
20319;DHT22;10317;47.254;11.314;2023-03-01T11:24:16;7.00;81.40
20319;DHT22;10317;47.254;11.314;2023-03-01T11:26:50;7.10;81.10
20319;DHT22;10317;47.254;11.314;2023-03-01T11:29:35;7.10;80.90
20319;DHT22;10317;47.254;11.314;2023-03-01T11:32:07;7.10;79.60
20319;DHT22;10317;47.254;11.314;2023-03-01T11:34:53;7.20;79.40
20319;DHT22;10317;47.254;11.314;2023-03-01T11:40:23;6.40;80.10
20319;DHT22;10317;47.254;11.314;2023-03-01T11:54:21;7.20;77.60
20319;DHT22;10317;47.254;11.314;2023-03-01T11:57:08;6.90;80.30
20319;DHT22;10317;47.254;11.314;2023-03-01T12:08:50;7.10;78.60
20319;DHT22;10317;47.254;11.314;2023-03-01T12:22:44;7.70;77.40
20319;DHT22;10317;47.254;11.314;2023-03-01T12:35:36;8.20;75.20
20319;DHT22;10317;47.254;11.314;2023-03-01T12:38:31;8.30;74.30
20319;DHT22;10317;47.254;11.314;2023-03-01T12:46:42;7.50;73.40
20319;DHT22;10317;47.254;11.314;2023-03-01T12:49:15;7.40;75.10
20319;DHT22;10317;47.254;11.314;2023-03-01T12:51:59;7.50;74.90
20319;DHT22;10317;47.254;11.314;2023-03-01T12:54:31;7.80;75.30
20319;DHT22;10317;47.254;11.314;2023-03-01T12:57:12;7.80;76.50
20319;DHT22;10317;47.254;11.314;2023-03-01T13:02:36;7.60;77.70
20319;DHT22;10317;47.254;11.314;2023-03-01T13:10:58;7.70;75.50
20319;DHT22;10317;47.254;11.314;2023-03-01T13:13:27;7.80;75.10
20319;DHT22;10317;47.254;11.314;2023-03-01T13:15:54;8.10;77.30
20319;DHT22;10317;47.254;11.314;2023-03-01T13:31:00;8.10;78.30
20319;DHT22;10317;47.254;11.314;2023-03-01T13:35:53;8.30;75.70
20319;DHT22;10317;47.254;11.314;2023-03-01T13:38:44;8.10;76.00
20319;DHT22;10317;47.254;11.314;2023-03-01T13:41:12;8.20;76.30
20319;DHT22;10317;47.254;11.314;2023-03-01T13:43:41;8.30;75.10
20319;DHT22;10317;47.254;11.314;2023-03-01T13:48:40;8.00;75.80
20319;DHT22;10317;47.254;11.314;2023-03-01T13:51:10;8.00;76.50
20319;DHT22;10317;47.254;11.314;2023-03-01T13:53:42;8.40;77.40
20319;DHT22;10317;47.254;11.314;2023-03-01T13:56:15;8.40;76.60
20319;DHT22;10317;47.254;11.314;2023-03-01T13:59:04;8.20;76.70
20319;DHT22;10317;47.254;11.314;2023-03-01T14:01:33;8.30;75.80
20319;DHT22;10317;47.254;11.314;2023-03-01T14:03:59;8.40;76.30
20319;DHT22;10317;47.254;11.314;2023-03-01T14:06:30;8.50;75.40
20319;DHT22;10317;47.254;11.314;2023-03-01T14:20:23;8.60;75.40
20319;DHT22;10317;47.254;11.314;2023-03-01T14:22:53;8.30;75.00
20319;DHT22;10317;47.254;11.314;2023-03-01T14:30:42;8.70;75.10
20319;DHT22;10317;47.254;11.314;2023-03-01T14:33:35;8.70;75.70
20319;DHT22;10317;47.254;11.314;2023-03-01T14:36:09;8.60;74.60
20319;DHT22;10317;47.254;11.314;2023-03-01T14:38:43;8.80;75.50
20319;DHT22;10317;47.254;11.314;2023-03-01T14:41:18;8.90;75.60
20319;DHT22;10317;47.254;11.314;2023-03-01T14:43:47;8.90;73.90
20319;DHT22;10317;47.254;11.314;2023-03-01T14:46:31;8.80;75.10
20319;DHT22;10317;47.254;11.314;2023-03-01T14:51:43;8.70;74.80
20319;DHT22;10317;47.254;11.314;2023-03-01T14:54:36;8.70;72.90
20319;DHT22;10317;47.254;11.314;2023-03-01T14:57:03;8.60;73.10
20319;DHT22;10317;47.254;11.314;2023-03-01T14:59:29;8.60;71.60
20319;DHT22;10317;47.254;11.314;2023-03-01T15:01:57;8.50;73.30
20319;DHT22;10317;47.254;11.314;2023-03-01T15:04:24;8.40;74.10
20319;DHT22;10317;47.254;11.314;2023-03-01T15:06:55;8.40;74.20
20319;DHT22;10317;47.254;11.314;2023-03-01T15:09:22;8.40;74.80
20319;DHT22;10317;47.254;11.314;2023-03-01T15:11:48;8.30;73.40
20319;DHT22;10317;47.254;11.314;2023-03-01T15:14:40;8.40;75.80
20319;DHT22;10317;47.254;11.314;2023-03-01T15:17:26;8.40;75.30
20319;DHT22;10317;47.254;11.314;2023-03-01T15:19:54;8.30;75.30
20319;DHT22;10317;47.254;11.314;2023-03-01T15:22:21;8.30;77.10
20319;DHT22;10317;47.254;11.314;2023-03-01T15:24:50;8.20;75.60
20319;DHT22;10317;47.254;11.314;2023-03-01T15:27:21;8.20;76.60
20319;DHT22;10317;47.254;11.314;2023-03-01T15:29:55;8.00;75.30
20319;DHT22;10317;47.254;11.314;2023-03-01T15:32:32;8.00;74.60
20319;DHT22;10317;47.254;11.314;2023-03-01T15:35:00;8.00;74.90
20319;DHT22;10317;47.254;11.314;2023-03-01T15:37:47;7.90;74.30
20319;DHT22;10317;47.254;11.314;2023-03-01T15:40:29;7.90;75.30
20319;DHT22;10317;47.254;11.314;2023-03-01T15:43:02;7.80;75.50
20319;DHT22;10317;47.254;11.314;2023-03-01T15:45:33;7.80;76.80
20319;DHT22;10317;47.254;11.314;2023-03-01T15:48:14;7.70;76.20
20319;DHT22;10317;47.254;11.314;2023-03-01T15:50:40;7.70;77.30
20319;DHT22;10317;47.254;11.314;2023-03-01T15:53:12;7.50;81.40
20319;DHT22;10317;47.254;11.314;2023-03-01T15:55:39;7.40;82.40
20319;DHT22;10317;47.254;11.314;2023-03-01T15:58:10;7.20;82.40
20319;DHT22;10317;47.254;11.314;2023-03-01T16:00:38;7.10;84.60
20319;DHT22;10317;47.254;11.314;2023-03-01T16:03:04;6.90;85.40
20319;DHT22;10317;47.254;11.314;2023-03-01T16:05:32;6.90;86.20
20319;DHT22;10317;47.254;11.314;2023-03-01T16:08:02;6.80;87.10
20319;DHT22;10317;47.254;11.314;2023-03-01T16:10:28;6.70;88.00
20319;DHT22;10317;47.254;11.314;2023-03-01T16:12:55;6.60;88.20
20319;DHT22;10317;47.254;11.314;2023-03-01T16:15:22;6.50;89.70
20319;DHT22;10317;47.254;11.314;2023-03-01T16:17:48;6.50;90.00
20319;DHT22;10317;47.254;11.314;2023-03-01T16:20:14;6.40;90.10
20319;DHT22;10317;47.254;11.314;2023-03-01T16:22:43;6.30;91.00
20319;DHT22;10317;47.254;11.314;2023-03-01T16:25:11;6.20;91.00
20319;DHT22;10317;47.254;11.314;2023-03-01T16:27:41;6.10;91.00
20319;DHT22;10317;47.254;11.314;2023-03-01T16:30:08;6.00;91.40
20319;DHT22;10317;47.254;11.314;2023-03-01T16:32:38;5.90;91.60
20319;DHT22;10317;47.254;11.314;2023-03-01T16:35:05;5.80;91.90
20319;DHT22;10317;47.254;11.314;2023-03-01T16:37:32;5.60;92.60
20319;DHT22;10317;47.254;11.314;2023-03-01T16:39:58;5.60;92.80
20319;DHT22;10317;47.254;11.314;2023-03-01T16:42:24;5.40;93.20
20319;DHT22;10317;47.254;11.314;2023-03-01T16:44:54;5.30;93.50
20319;DHT22;10317;47.254;11.314;2023-03-01T16:47:21;5.20;94.20
20319;DHT22;10317;47.254;11.314;2023-03-01T16:49:46;5.10;93.80
20319;DHT22;10317;47.254;11.314;2023-03-01T16:52:12;5.10;94.10
20319;DHT22;10317;47.254;11.314;2023-03-01T16:54:38;5.00;94.80
20319;DHT22;10317;47.254;11.314;2023-03-01T16:57:04;4.80;95.60
20319;DHT22;10317;47.254;11.314;2023-03-01T16:59:30;4.70;95.70
20319;DHT22;10317;47.254;11.314;2023-03-01T17:01:55;4.60;95.70
20319;DHT22;10317;47.254;11.314;2023-03-01T17:04:21;4.50;95.90
20319;DHT22;10317;47.254;11.314;2023-03-01T17:06:47;4.40;96.10
20319;DHT22;10317;47.254;11.314;2023-03-01T17:09:14;4.30;97.00
20319;DHT22;10317;47.254;11.314;2023-03-01T17:11:42;4.30;97.20
20319;DHT22;10317;47.254;11.314;2023-03-01T17:14:08;4.20;98.20
20319;DHT22;10317;47.254;11.314;2023-03-01T17:16:34;4.20;98.00
20319;DHT22;10317;47.254;11.314;2023-03-01T17:19:00;4.10;98.40
20319;DHT22;10317;47.254;11.314;2023-03-01T17:21:26;4.00;99.00
20319;DHT22;10317;47.254;11.314;2023-03-01T17:23:56;3.90;99.20
20319;DHT22;10317;47.254;11.314;2023-03-01T17:26:22;3.80;99.90
20319;DHT22;10317;47.254;11.314;2023-03-01T17:28:48;3.80;99.90
20319;DHT22;10317;47.254;11.314;2023-03-01T17:31:18;3.70;99.60
20319;DHT22;10317;47.254;11.314;2023-03-01T17:33:43;3.70;99.90
20319;DHT22;10317;47.254;11.314;2023-03-01T17:36:28;3.60;99.90
20319;DHT22;10317;47.254;11.314;2023-03-01T17:38:58;3.60;99.90
20319;DHT22;10317;47.254;11.314;2023-03-01T17:41:41;3.50;99.90
20319;DHT22;10317;47.254;11.314;2023-03-01T17:44:06;3.50;99.90
20319;DHT22;10317;47.254;11.314;2023-03-01T17:46:46;3.40;99.90
20319;DHT22;10317;47.254;11.314;2023-03-01T17:49:12;3.40;99.90
20319;DHT22;10317;47.254;11.314;2023-03-01T17:51:38;3.50;99.90
20319;DHT22;10317;47.254;11.314;2023-03-01T17:54:04;3.50;99.90
20319;DHT22;10317;47.254;11.314;2023-03-01T17:56:29;3.50;99.90